createdAt,value
2018-04-13T00:01:41.169Z,24.92
2018-04-13T00:04:09.572Z,23.83
2018-04-13T00:06:38.927Z,24.80
2018-04-13T00:09:07.302Z,24.35
2018-04-13T00:11:35.721Z,23.17
2018-04-13T00:14:04.075Z,25.02
2018-04-13T00:16:32.483Z,23.65
2018-04-13T00:19:00.982Z,25.52
2018-04-13T00:21:29.376Z,25.15
2018-04-13T00:23:58.520Z,25.75
2018-04-13T00:26:26.907Z,25.02
2018-04-13T00:28:55.290Z,23.65
2018-04-13T00:31:23.673Z,23.08
2018-04-13T00:33:52.055Z,23.83
2018-04-13T00:36:20.435Z,24.65
2018-04-13T00:38:48.925Z,23.50
2018-04-13T00:41:17.315Z,23.05
2018-04-13T00:43:45.683Z,23.00
2018-04-13T00:46:14.086Z,21.95
2018-04-13T00:48:42.454Z,24.45
2018-04-13T00:51:10.842Z,22.65
2018-04-13T00:53:39.215Z,22.80
2018-04-13T00:56:07.611Z,23.25
2018-04-13T00:58:35.974Z,22.60
2018-04-13T01:01:04.388Z,23.95
2018-04-13T01:03:32.769Z,23.00
2018-04-13T01:06:01.120Z,22.90
2018-04-13T01:08:29.681Z,22.33
2018-04-13T01:10:58.824Z,23.60
2018-04-13T01:13:27.211Z,24.12
2018-04-13T01:15:55.657Z,23.65
2018-04-13T01:18:24.837Z,22.50
2018-04-13T01:20:53.242Z,24.30
2018-04-13T01:23:22.392Z,22.25
2018-04-13T01:25:50.774Z,22.83
2018-04-13T01:28:19.205Z,25.17
2018-04-13T01:33:21.569Z,21.77
2018-04-13T01:35:49.958Z,24.25
2018-04-13T01:38:18.368Z,24.80
2018-04-13T01:40:47.523Z,22.98
2018-04-13T01:43:15.924Z,23.27
2018-04-13T01:45:44.316Z,26.12
2018-04-13T01:48:12.700Z,24.60
2018-04-13T01:50:41.104Z,26.80
2018-04-13T01:53:10.233Z,25.10
2018-04-13T01:55:38.641Z,27.25
2018-04-13T01:58:07.051Z,25.83
2018-04-13T02:00:35.433Z,25.45
2018-04-13T02:03:04.557Z,26.42
2018-04-13T02:05:32.908Z,27.08
2018-04-13T02:08:01.289Z,27.67
2018-04-13T02:10:29.696Z,28.38
2018-04-13T02:12:58.845Z,29.12
2018-04-13T02:15:27.314Z,29.65
2018-04-13T02:17:55.718Z,29.80
2018-04-13T02:20:24.103Z,29.70
2018-04-13T02:22:52.554Z,27.65
2018-04-13T02:25:21.105Z,28.60
2018-04-13T02:27:50.254Z,26.20
2018-04-13T02:30:18.627Z,25.62
2018-04-13T02:32:47.011Z,26.73
2018-04-13T02:35:15.489Z,25.92
2018-04-13T02:37:43.873Z,27.02
2018-04-13T02:40:12.261Z,26.52
2018-04-13T02:42:40.669Z,27.90
2018-04-13T02:45:09.075Z,26.27
2018-04-13T02:47:37.472Z,26.23
2018-04-13T02:50:07.022Z,31.45
2018-04-13T02:52:35.422Z,27.85
2018-04-13T02:55:03.890Z,28.52
2018-04-13T02:57:32.311Z,28.35
2018-04-13T03:00:00.699Z,25.98
2018-04-13T03:02:29.095Z,27.87
2018-04-13T03:04:57.453Z,32.40
2018-04-13T03:07:25.898Z,31.33
2018-04-13T03:09:54.292Z,30.52
2018-04-13T03:12:22.698Z,30.08
2018-04-13T03:14:51.108Z,31.25
2018-04-13T03:17:19.474Z,31.20
2018-04-13T03:19:47.849Z,31.23
2018-04-13T03:22:16.282Z,29.75
2018-04-13T03:24:45.478Z,31.02
2018-04-13T03:27:14.598Z,28.30
2018-04-13T03:29:42.998Z,28.17
2018-04-13T03:32:11.356Z,30.45
2018-04-13T03:34:39.751Z,29.52
2018-04-13T03:37:08.108Z,27.77
2018-04-13T03:39:37.325Z,26.80
2018-04-13T03:42:05.745Z,31.55
2018-04-13T03:44:34.135Z,32.28
2018-04-13T03:47:02.533Z,34.60
2018-04-13T03:49:30.893Z,30.52
2018-04-13T03:51:59.301Z,31.73
2018-04-13T03:54:27.698Z,31.02
2018-04-13T03:56:56.114Z,28.95
2018-04-13T03:59:24.492Z,29.42
2018-04-13T04:01:52.867Z,29.90
2018-04-13T04:04:22.045Z,29.95
2018-04-13T04:06:51.204Z,29.70
2018-04-13T04:09:19.573Z,28.95
2018-04-13T04:11:47.953Z,28.83
2018-04-13T04:14:16.343Z,30.45
2018-04-13T04:16:44.853Z,30.83
2018-04-13T04:19:13.253Z,31.15
2018-04-13T04:21:59.597Z,30.33
2018-04-13T04:24:45.834Z,29.98
2018-04-13T04:27:14.214Z,30.48
2018-04-13T04:29:42.605Z,31.30
2018-04-13T04:32:10.975Z,31.58
2018-04-13T04:34:39.341Z,30.33
2018-04-13T04:37:08.034Z,28.95
2018-04-13T04:39:36.460Z,31.80
2018-04-13T04:42:05.628Z,29.05
2018-04-13T04:44:34.027Z,28.80
2018-04-13T04:47:02.393Z,31.83
2018-04-13T04:49:30.764Z,31.45
2018-04-13T04:51:59.420Z,33.05
2018-04-13T04:54:27.785Z,33.42
2018-04-13T04:56:56.921Z,34.20
2018-04-13T04:59:25.305Z,33.70
2018-04-13T05:01:53.677Z,30.52
2018-04-13T05:04:22.109Z,32.85
2018-04-13T05:06:50.551Z,30.85
2018-04-13T05:09:19.710Z,30.20
2018-04-13T05:11:48.888Z,29.05
2018-04-13T05:14:17.430Z,28.98
2018-04-13T05:16:45.858Z,30.60
2018-04-13T05:19:14.269Z,27.95
2018-04-13T05:21:43.418Z,28.23
2018-04-13T05:24:11.816Z,26.80
2018-04-13T05:26:40.197Z,26.90
2018-04-13T05:29:08.601Z,26.55
2018-04-13T05:31:37.763Z,26.85
2018-04-13T05:34:06.168Z,25.27
2018-04-13T05:36:34.586Z,25.75
2018-04-13T05:39:03.742Z,25.95
2018-04-13T05:41:32.125Z,23.95
2018-04-13T05:44:00.510Z,23.20
2018-04-13T05:46:28.904Z,22.40
2018-04-13T05:48:57.291Z,23.55
2018-04-13T05:51:25.677Z,22.90
2018-04-13T05:53:54.229Z,22.02
2018-04-13T05:56:22.706Z,20.90
2018-04-13T05:58:51.103Z,22.45
2018-04-13T06:01:19.509Z,21.10
2018-04-13T06:03:47.914Z,21.02
2018-04-13T06:06:17.097Z,20.90
2018-04-13T06:08:45.469Z,22.00
2018-04-13T06:11:13.865Z,21.02
2018-04-13T06:13:42.249Z,20.37
2018-04-13T06:16:11.414Z,19.30
2018-04-13T06:18:39.809Z,18.67
2018-04-13T06:21:08.225Z,15.65
2018-04-13T06:23:37.422Z,17.70
2018-04-13T06:26:05.790Z,18.47
2018-04-13T06:28:35.710Z,18.17
2018-04-13T06:31:04.085Z,18.20
2018-04-13T06:33:32.585Z,17.47
2018-04-13T06:36:00.991Z,19.10
2018-04-13T06:38:30.186Z,18.20
2018-04-13T06:40:59.342Z,18.07
2018-04-13T06:43:27.762Z,18.40
2018-04-13T06:45:56.961Z,18.33
2018-04-13T06:48:25.389Z,19.50
2018-04-13T06:50:53.778Z,17.70
2018-04-13T06:53:22.216Z,19.87
2018-04-13T06:55:51.368Z,22.30
2018-04-13T06:58:19.799Z,21.57
2018-04-13T07:00:48.198Z,23.97
2018-04-13T07:03:17.382Z,23.27
2018-04-13T07:05:45.800Z,27.30
2018-04-13T07:08:14.208Z,29.77
2018-04-13T07:10:42.618Z,26.00
2018-04-13T07:13:11.805Z,25.47
2018-04-13T07:15:40.224Z,25.17
2018-04-13T07:18:09.379Z,25.50
2018-04-13T07:20:37.762Z,25.73
2018-04-13T07:23:06.170Z,26.03
2018-04-13T07:25:34.611Z,25.37
2018-04-13T07:28:03.097Z,26.97
2018-04-13T07:30:31.570Z,26.43
2018-04-13T07:32:59.990Z,26.40
2018-04-13T07:35:28.381Z,26.27
2018-04-13T07:38:00.313Z,28.10
2018-04-13T07:40:29.045Z,28.43
2018-04-13T07:42:57.141Z,26.90
2018-04-13T07:45:25.546Z,27.10
2018-04-13T07:47:54.778Z,28.77
2018-04-13T07:50:23.319Z,27.00
2018-04-13T07:52:52.480Z,30.33
2018-04-13T07:55:20.923Z,27.60
2018-04-13T07:57:50.094Z,27.43
2018-04-13T08:00:18.798Z,31.47
2018-04-13T08:02:48.071Z,28.00
2018-04-13T08:05:16.171Z,28.00
2018-04-13T08:07:44.701Z,29.20
2018-04-13T08:10:13.625Z,30.37
2018-04-13T08:12:42.283Z,31.77
2018-04-13T08:15:10.706Z,32.47
2018-04-13T08:17:39.098Z,34.63
2018-04-13T08:20:09.015Z,36.90
2018-04-13T08:22:38.981Z,34.17
2018-04-13T08:25:07.568Z,37.20
2018-04-13T08:27:35.982Z,39.40
2018-04-13T08:30:04.354Z,41.60
2018-04-13T08:32:32.826Z,42.17
2018-04-13T08:35:01.226Z,42.47
2018-04-13T08:37:29.614Z,40.67
2018-04-13T08:39:58.030Z,40.57
2018-04-13T08:42:26.952Z,42.40
2018-04-13T08:44:55.472Z,39.40
2018-04-13T08:47:23.851Z,41.97
2018-04-13T08:49:52.266Z,44.83
2018-04-13T08:52:20.676Z,48.47
2018-04-13T08:54:49.791Z,51.60
2018-04-13T08:57:18.180Z,52.90
2018-04-13T08:59:46.601Z,52.80
2018-04-13T09:02:15.753Z,53.70
2018-04-13T09:04:44.152Z,54.37
2018-04-13T09:07:12.547Z,53.63
2018-04-13T09:09:40.944Z,56.83
2018-04-13T09:12:09.340Z,55.10
2018-04-13T09:14:41.559Z,53.40
2018-04-13T09:17:10.710Z,54.57
2018-04-13T09:19:39.107Z,53.03
2018-04-13T09:22:07.501Z,51.67
2018-04-13T09:24:35.930Z,52.20
2018-04-13T09:27:04.328Z,50.13
2018-04-13T09:29:32.739Z,52.07
2018-04-13T09:32:01.139Z,49.87
2018-04-13T09:34:29.547Z,45.20
2018-04-13T09:36:58.709Z,43.87
2018-04-13T09:39:27.131Z,37.97
2018-04-13T09:41:55.506Z,33.20
2018-04-13T09:44:24.746Z,24.10
2018-04-13T09:46:53.867Z,23.20
2018-04-13T09:49:22.337Z,23.80
2018-04-13T09:51:50.729Z,20.47
2018-04-13T09:54:19.138Z,21.40
2018-04-13T09:56:47.637Z,20.50
2018-04-13T09:59:15.938Z,19.67
2018-04-13T10:01:44.330Z,21.73
2018-04-13T10:04:13.584Z,17.20
2018-04-13T10:06:42.013Z,18.07
2018-04-13T10:09:10.409Z,17.60
2018-04-13T10:11:38.847Z,15.40
2018-04-13T10:14:07.218Z,16.80
2018-04-13T10:16:35.619Z,17.17
2018-04-13T10:19:04.777Z,17.70
2018-04-13T10:21:33.207Z,15.90
2018-04-13T10:24:02.401Z,12.70
2018-04-13T10:26:30.803Z,11.80
2018-04-13T10:28:59.949Z,12.10
2018-04-13T10:31:28.369Z,12.27
2018-04-13T10:33:57.533Z,10.07
2018-04-13T10:36:25.917Z,9.73
2018-04-13T10:38:54.298Z,8.37
2018-04-13T10:41:22.689Z,9.00
2018-04-13T10:43:51.863Z,9.43
2018-04-13T10:46:20.244Z,8.27
2018-04-13T10:48:48.658Z,9.00
2018-04-13T10:51:17.061Z,9.53
2018-04-13T10:53:45.464Z,9.03
2018-04-13T10:56:14.614Z,9.07
2018-04-13T10:58:43.099Z,9.90
2018-04-13T11:01:11.487Z,10.23
2018-04-13T11:03:39.935Z,10.10
2018-04-13T11:06:09.102Z,10.23
2018-04-13T11:08:37.511Z,9.23
2018-04-13T11:11:05.901Z,9.87
2018-04-13T11:13:34.319Z,11.00
2018-04-13T11:16:02.706Z,9.63
2018-04-13T11:18:31.169Z,9.80
2018-04-13T11:20:59.609Z,9.90
2018-04-13T11:23:28.041Z,9.87
2018-04-13T11:25:56.453Z,11.17
2018-04-13T11:28:24.893Z,10.30
2018-04-13T11:30:53.268Z,9.80
2018-04-13T11:33:21.679Z,10.00
2018-04-13T11:35:50.073Z,11.30
2018-04-13T11:38:18.469Z,10.20
2018-04-13T11:40:46.929Z,10.13
2018-04-13T11:43:15.448Z,10.00
2018-04-13T11:45:44.607Z,9.00
2018-04-13T11:48:13.901Z,9.20
2018-04-13T11:50:42.309Z,11.73
2018-04-13T11:53:10.827Z,10.50
2018-04-13T11:55:40.730Z,9.17
2018-04-13T11:58:09.941Z,10.23
2018-04-13T12:00:38.353Z,11.17
2018-04-13T12:03:07.539Z,9.50
2018-04-13T12:05:35.914Z,9.63
2018-04-13T12:08:05.078Z,9.40
2018-04-13T12:10:33.477Z,8.47
2018-04-13T12:13:01.902Z,10.17
2018-04-13T12:15:31.061Z,8.90
2018-04-13T12:17:59.488Z,7.27
2018-04-13T12:20:28.649Z,8.67
2018-04-13T12:22:57.056Z,6.60
2018-04-13T12:25:25.518Z,5.30
2018-04-13T12:27:53.912Z,5.03
2018-04-13T12:30:22.343Z,5.67
2018-04-13T12:32:50.727Z,5.50
2018-04-13T12:35:19.132Z,4.97
2018-04-13T12:37:47.525Z,5.37
2018-04-13T12:40:16.689Z,4.53
2018-04-13T12:42:45.147Z,4.03
2018-04-13T12:45:13.552Z,3.83
2018-04-13T12:47:42.718Z,5.13
2018-04-13T12:50:11.112Z,4.50
2018-04-13T12:52:40.331Z,4.63
2018-04-13T12:55:08.975Z,4.10
2018-04-13T12:57:37.229Z,4.17
2018-04-13T13:00:05.607Z,4.30
2018-04-13T13:02:34.300Z,5.30
2018-04-13T13:05:02.684Z,4.60
2018-04-13T13:07:31.101Z,5.00
2018-04-13T13:09:59.522Z,5.00
2018-04-13T13:12:28.705Z,5.70
2018-04-13T13:14:57.117Z,5.67
2018-04-13T13:17:25.517Z,7.57
2018-04-13T13:19:53.892Z,5.90
2018-04-13T13:22:22.274Z,6.97
2018-04-13T13:24:50.678Z,5.70
2018-04-13T13:27:19.082Z,6.30
2018-04-13T13:29:47.511Z,6.13
2018-04-13T13:32:16.681Z,6.77
2018-04-13T13:34:45.218Z,5.77
2018-04-13T13:37:13.680Z,6.97
2018-04-13T13:39:42.961Z,5.97
2018-04-13T13:42:11.360Z,6.13
2018-04-13T13:44:40.514Z,5.47
2018-04-13T13:47:09.799Z,6.23
2018-04-13T13:49:38.201Z,5.90
2018-04-13T13:52:06.625Z,5.60
2018-04-13T13:54:35.023Z,6.40
2018-04-13T13:57:04.177Z,6.43
2018-04-13T13:59:33.374Z,6.30
2018-04-13T14:02:01.847Z,6.37
2018-04-13T14:04:30.236Z,5.30
2018-04-13T14:06:58.628Z,5.43
2018-04-13T14:09:27.079Z,5.10
2018-04-13T14:11:56.229Z,5.40
2018-04-13T14:14:24.630Z,5.23
2018-04-13T14:16:53.014Z,6.00
2018-04-13T14:19:21.433Z,6.00
2018-04-13T14:21:49.825Z,5.07
2018-04-13T14:24:18.282Z,5.83
2018-04-13T14:26:47.435Z,6.43
2018-04-13T14:29:15.849Z,5.00
2018-04-13T14:31:44.283Z,5.50
2018-04-13T14:34:12.677Z,6.57
2018-04-13T14:36:41.874Z,5.30
2018-04-13T14:39:11.198Z,4.70
2018-04-13T14:41:39.619Z,5.30
2018-04-13T14:44:08.784Z,4.97
2018-04-13T14:46:37.181Z,5.00
2018-04-13T14:49:05.570Z,4.20
2018-04-13T14:51:33.973Z,4.87
2018-04-13T14:54:03.312Z,4.03
2018-04-13T14:56:31.709Z,4.13
2018-04-13T14:59:00.118Z,4.00
2018-04-13T15:01:28.551Z,4.73
2018-04-13T15:03:56.915Z,3.43
2018-04-13T15:06:26.102Z,4.43
2018-04-13T15:08:55.240Z,5.10
2018-04-13T15:11:23.670Z,4.53
2018-04-13T15:13:52.086Z,5.17
2018-04-13T15:16:21.279Z,4.80
2018-04-13T15:18:50.455Z,5.20
2018-04-13T15:21:18.846Z,5.60
2018-04-13T15:23:47.241Z,5.10
2018-04-13T15:26:16.385Z,5.00
2018-04-13T15:28:44.761Z,5.33
2018-04-13T15:31:13.267Z,5.03
2018-04-13T15:33:42.449Z,5.70
2018-04-13T15:36:10.842Z,4.83
2018-04-13T15:38:39.241Z,5.43
2018-04-13T15:41:07.651Z,5.37
2018-04-13T15:43:36.840Z,6.00
2018-04-13T15:46:05.235Z,5.90
2018-04-13T15:48:33.696Z,5.07
2018-04-13T15:51:02.851Z,5.00
2018-04-13T15:53:31.260Z,5.67
2018-04-13T15:55:59.650Z,6.07
2018-04-13T15:58:28.034Z,5.33
2018-04-13T16:00:56.454Z,4.93
2018-04-13T16:03:24.886Z,5.33
2018-04-13T16:05:53.332Z,6.37
2018-04-13T16:08:22.497Z,5.50
2018-04-13T16:10:50.891Z,5.77
2018-04-13T16:13:19.280Z,5.30
2018-04-13T16:15:47.654Z,6.40
2018-04-13T16:18:16.877Z,5.70
2018-04-13T16:20:45.276Z,5.30
2018-04-13T16:23:14.475Z,6.70
2018-04-13T16:25:43.646Z,5.70
2018-04-13T16:28:12.059Z,6.30
2018-04-13T16:30:41.234Z,6.30
2018-04-13T16:33:09.667Z,6.33
2018-04-13T16:35:38.114Z,6.70
2018-04-13T16:38:06.515Z,6.30
2018-04-13T16:40:35.706Z,8.03
2018-04-13T16:43:04.883Z,7.23
2018-04-13T16:45:33.278Z,6.80
2018-04-13T16:48:01.744Z,7.30
2018-04-13T16:50:30.199Z,7.80
2018-04-13T16:52:58.585Z,7.13
2018-04-13T16:55:27.044Z,7.47
2018-04-13T16:57:56.229Z,7.90
2018-04-13T17:00:25.437Z,7.10
2018-04-13T17:02:54.603Z,6.83
2018-04-13T17:05:23.015Z,9.03
2018-04-13T17:07:52.186Z,7.30
2018-04-13T17:10:21.372Z,8.07
2018-04-13T17:12:49.801Z,7.63
2018-04-13T17:15:18.942Z,7.90
2018-04-13T17:17:47.346Z,8.57
2018-04-13T17:20:15.786Z,8.77
2018-04-13T17:22:44.947Z,8.70
2018-04-13T17:25:13.339Z,9.63
2018-04-13T17:27:41.744Z,10.00
2018-04-13T17:30:10.890Z,8.53
2018-04-13T17:32:39.309Z,9.30
2018-04-13T17:35:08.397Z,9.60
2018-04-13T17:37:36.786Z,8.80
2018-04-13T17:40:05.247Z,9.40
2018-04-13T17:42:33.714Z,10.33
2018-04-13T17:45:02.131Z,10.27
2018-04-13T17:47:30.571Z,11.70
2018-04-13T17:49:58.990Z,10.20
2018-04-13T17:52:28.343Z,10.53
2018-04-13T17:54:57.498Z,10.87
2018-04-13T17:57:25.913Z,10.53
2018-04-13T17:59:54.306Z,9.43
2018-04-13T18:02:23.462Z,10.17
2018-04-13T18:04:51.854Z,9.40
2018-04-13T18:07:20.273Z,9.80
2018-04-13T18:09:49.445Z,10.83
2018-04-13T18:12:17.862Z,10.30
2018-04-13T18:14:47.042Z,12.57
2018-04-13T18:17:15.505Z,11.77
2018-04-13T18:19:43.963Z,11.57
2018-04-13T18:22:12.390Z,13.40
2018-04-13T18:24:40.823Z,14.33
2018-04-13T18:27:09.231Z,14.20
2018-04-13T18:29:37.651Z,11.83
2018-04-13T18:32:06.084Z,12.10
2018-04-13T18:34:34.498Z,13.23
2018-04-13T18:37:03.196Z,12.63
2018-04-13T18:39:31.612Z,15.63
2018-04-13T18:42:00.115Z,20.97
2018-04-13T18:44:28.554Z,16.00
2018-04-13T18:46:57.053Z,14.17
2018-04-13T18:49:26.254Z,12.40
2018-04-13T18:51:54.714Z,11.83
2018-04-13T18:54:23.136Z,11.60
2018-04-13T18:56:52.343Z,11.83
2018-04-13T18:59:20.810Z,12.03
2018-04-13T19:01:49.243Z,11.37
2018-04-13T19:04:17.676Z,11.23
2018-04-13T19:06:46.107Z,11.17
2018-04-13T19:09:14.513Z,11.97
2018-04-13T19:11:42.931Z,11.73
2018-04-13T19:14:12.146Z,12.63
2018-04-13T19:16:41.346Z,11.30
2018-04-13T19:19:10.516Z,11.53
2018-04-13T19:21:38.982Z,12.97
2018-04-13T19:24:07.378Z,12.77
2018-04-13T19:26:35.810Z,13.10
2018-04-13T19:29:04.214Z,13.40
2018-04-13T19:31:32.681Z,13.50
2018-04-13T19:34:01.079Z,13.67
2018-04-13T19:36:29.489Z,14.93
2018-04-13T19:38:57.922Z,13.80
2018-04-13T19:41:26.339Z,13.13
2018-04-13T19:43:54.774Z,15.77
2018-04-13T19:46:23.206Z,22.80
2018-04-13T19:48:51.778Z,19.23
2018-04-13T19:51:20.167Z,15.90
2018-04-13T19:53:48.750Z,14.30
2018-04-13T19:56:17.339Z,14.07
2018-04-13T19:58:45.943Z,13.50
2018-04-13T20:01:14.335Z,14.30
2018-04-13T20:03:42.886Z,14.00
2018-04-13T20:06:11.343Z,15.83
2018-04-13T20:08:39.782Z,14.27
2018-04-13T20:11:08.187Z,13.83
2018-04-13T20:13:36.553Z,14.90
2018-04-13T20:16:04.940Z,15.67
2018-04-13T20:18:34.094Z,15.20
2018-04-13T20:21:03.282Z,15.93
2018-04-13T20:23:32.438Z,14.63
2018-04-13T20:26:00.861Z,17.83
2018-04-13T20:28:29.274Z,14.70
2018-04-13T20:30:57.682Z,16.90
2018-04-13T20:33:26.100Z,16.00
2018-04-13T20:35:54.515Z,16.20
2018-04-13T20:38:23.709Z,17.93
2018-04-13T20:40:52.876Z,18.00
2018-04-13T20:43:21.289Z,17.07
2018-04-13T20:45:50.482Z,14.50
2018-04-13T20:48:18.879Z,18.23
2018-04-13T20:50:48.055Z,17.97
2018-04-13T20:53:16.452Z,13.80
2018-04-13T20:55:44.901Z,12.90
2018-04-13T20:58:13.304Z,13.30
2018-04-13T21:00:41.746Z,12.37
2018-04-13T21:03:10.200Z,14.50
2018-04-13T21:05:39.812Z,12.97
2018-04-13T21:08:08.978Z,16.40
2018-04-13T21:10:37.545Z,20.17
2018-04-13T21:13:06.799Z,22.90
2018-04-13T21:15:35.243Z,16.07
2018-04-13T21:18:03.778Z,14.83
2018-04-13T21:20:32.271Z,15.40
2018-04-13T21:23:00.730Z,13.37
2018-04-13T21:25:29.156Z,14.07
2018-04-13T21:27:57.560Z,13.77
2018-04-13T21:30:25.965Z,15.23
2018-04-13T21:32:54.406Z,13.27
2018-04-13T21:35:22.785Z,13.37
2018-04-13T21:37:51.215Z,15.17
2018-04-13T21:40:19.696Z,15.20
2018-04-13T21:42:48.131Z,15.53
2018-04-13T21:45:16.521Z,16.60
2018-04-13T21:47:44.971Z,16.20
2018-04-13T21:50:13.421Z,17.30
2018-04-13T21:52:41.876Z,16.27
2018-04-13T21:55:10.362Z,16.10
2018-04-13T21:57:38.810Z,15.47
2018-04-13T22:00:07.295Z,16.07
2018-04-13T22:02:36.461Z,14.43
2018-04-13T22:05:04.879Z,14.00
2018-04-13T22:07:34.094Z,11.70
2018-04-13T22:10:03.290Z,9.63
2018-04-13T22:12:50.182Z,9.80
2018-04-13T22:15:24.297Z,9.37
2018-04-13T22:17:52.702Z,9.30
2018-04-13T22:20:21.136Z,8.97
2018-04-13T22:22:49.531Z,8.70
2018-04-13T22:25:17.937Z,7.80
2018-04-13T22:27:47.214Z,8.23
2018-04-13T22:30:15.619Z,9.67
2018-04-13T22:32:44.850Z,8.87
2018-04-13T22:35:13.255Z,8.93
2018-04-13T22:37:41.706Z,8.10
2018-04-13T22:40:10.902Z,8.00
2018-04-13T22:42:39.348Z,8.87
2018-04-13T22:45:07.823Z,7.90
2018-04-13T22:47:37.102Z,7.33
2018-04-13T22:50:05.495Z,8.67
2018-04-13T22:52:33.870Z,8.60
2018-04-13T22:55:02.253Z,8.63
2018-04-13T22:57:30.658Z,8.27
2018-04-13T22:59:59.184Z,7.80
2018-04-13T23:02:28.390Z,8.30
2018-04-13T23:04:57.630Z,8.20
2018-04-13T23:07:26.033Z,8.23
2018-04-13T23:09:55.225Z,8.03
2018-04-13T23:12:23.673Z,8.83
2018-04-13T23:14:52.896Z,7.93
2018-04-13T23:17:21.298Z,7.70
2018-04-13T23:19:49.717Z,7.30
2018-04-13T23:22:37.641Z,7.73
2018-04-13T23:25:06.084Z,6.90
2018-04-13T23:27:34.512Z,8.80
2018-04-13T23:30:02.926Z,8.53
2018-04-13T23:32:31.326Z,8.70
2018-04-13T23:34:59.742Z,8.20
2018-04-13T23:37:28.141Z,7.80
2018-04-13T23:39:56.733Z,8.37
2018-04-13T23:42:25.129Z,8.40
2018-04-13T23:44:54.319Z,9.00
2018-04-13T23:47:22.747Z,8.17
2018-04-13T23:49:51.147Z,7.33
2018-04-13T23:52:19.561Z,8.50
2018-04-13T23:54:47.977Z,7.93
2018-04-13T23:57:17.153Z,9.17
2018-04-13T23:59:45.536Z,8.40
